sensor_id;sensor_type;location;lat;lon;timestamp;P1;durP1;ratioP1;P2;durP2;ratioP2
57071;SDS011;42956;51.366;11.298;2023-07-16T00:02:30;6.53;;;3.67;;
57071;SDS011;42956;51.366;11.298;2023-07-16T00:05:00;4.22;;;3.00;;
57071;SDS011;42956;51.366;11.298;2023-07-16T00:07:30;4.57;;;2.70;;
57071;SDS011;42956;51.366;11.298;2023-07-16T00:10:00;10.82;;;2.72;;
57071;SDS011;42956;51.366;11.298;2023-07-16T00:12:30;5.28;;;2.58;;
57071;SDS011;42956;51.366;11.298;2023-07-16T00:15:00;3.45;;;2.72;;
57071;SDS011;42956;51.366;11.298;2023-07-16T00:17:33;4.22;;;3.10;;
57071;SDS011;42956;51.366;11.298;2023-07-16T00:20:03;3.25;;;2.55;;
57071;SDS011;42956;51.366;11.298;2023-07-16T00:22:33;7.28;;;3.22;;
57071;SDS011;42956;51.366;11.298;2023-07-16T00:25:06;4.32;;;2.97;;
57071;SDS011;42956;51.366;11.298;2023-07-16T00:27:36;5.88;;;3.00;;
57071;SDS011;42956;51.366;11.298;2023-07-16T00:30:07;5.97;;;2.95;;
57071;SDS011;42956;51.366;11.298;2023-07-16T00:32:39;3.95;;;2.28;;
57071;SDS011;42956;51.366;11.298;2023-07-16T00:37:39;6.47;;;3.25;;
57071;SDS011;42956;51.366;11.298;2023-07-16T00:40:09;5.13;;;2.95;;
57071;SDS011;42956;51.366;11.298;2023-07-16T00:42:39;4.03;;;3.00;;
57071;SDS011;42956;51.366;11.298;2023-07-16T00:45:11;3.33;;;3.03;;
57071;SDS011;42956;51.366;11.298;2023-07-16T00:47:44;6.37;;;3.67;;
57071;SDS011;42956;51.366;11.298;2023-07-16T00:50:14;7.35;;;3.38;;
57071;SDS011;42956;51.366;11.298;2023-07-16T00:52:44;10.43;;;3.65;;
57071;SDS011;42956;51.366;11.298;2023-07-16T00:55:14;4.05;;;2.65;;
57071;SDS011;42956;51.366;11.298;2023-07-16T00:57:44;11.25;;;3.75;;
57071;SDS011;42956;51.366;11.298;2023-07-16T01:00:14;4.30;;;3.25;;
57071;SDS011;42956;51.366;11.298;2023-07-16T01:02:47;4.57;;;2.85;;
57071;SDS011;42956;51.366;11.298;2023-07-16T01:05:17;8.55;;;3.40;;
57071;SDS011;42956;51.366;11.298;2023-07-16T01:07:48;7.95;;;3.33;;
57071;SDS011;42956;51.366;11.298;2023-07-16T01:10:23;6.50;;;3.05;;
57071;SDS011;42956;51.366;11.298;2023-07-16T01:12:55;3.60;;;2.33;;
57071;SDS011;42956;51.366;11.298;2023-07-16T01:15:25;2.75;;;2.22;;
57071;SDS011;42956;51.366;11.298;2023-07-16T01:17:58;4.53;;;2.58;;
57071;SDS011;42956;51.366;11.298;2023-07-16T01:20:28;5.13;;;2.47;;
57071;SDS011;42956;51.366;11.298;2023-07-16T01:23:11;3.20;;;2.28;;
57071;SDS011;42956;51.366;11.298;2023-07-16T01:25:48;5.88;;;2.35;;
57071;SDS011;42956;51.366;11.298;2023-07-16T01:28:34;5.50;;;2.25;;
57071;SDS011;42956;51.366;11.298;2023-07-16T01:31:09;6.07;;;2.70;;
57071;SDS011;42956;51.366;11.298;2023-07-16T01:33:40;6.03;;;2.47;;
57071;SDS011;42956;51.366;11.298;2023-07-16T01:36:11;2.67;;;1.98;;
57071;SDS011;42956;51.366;11.298;2023-07-16T01:38:41;5.28;;;2.60;;
57071;SDS011;42956;51.366;11.298;2023-07-16T01:41:11;3.30;;;2.33;;
57071;SDS011;42956;51.366;11.298;2023-07-16T01:43:41;3.53;;;2.45;;
57071;SDS011;42956;51.366;11.298;2023-07-16T01:46:14;4.88;;;2.97;;
57071;SDS011;42956;51.366;11.298;2023-07-16T01:48:44;3.15;;;2.50;;
57071;SDS011;42956;51.366;11.298;2023-07-16T01:51:14;5.35;;;2.35;;
57071;SDS011;42956;51.366;11.298;2023-07-16T01:53:45;5.72;;;2.72;;
57071;SDS011;42956;51.366;11.298;2023-07-16T01:56:15;4.00;;;2.55;;
57071;SDS011;42956;51.366;11.298;2023-07-16T01:58:45;3.42;;;2.55;;
57071;SDS011;42956;51.366;11.298;2023-07-16T02:01:17;4.47;;;2.28;;
57071;SDS011;42956;51.366;11.298;2023-07-16T02:03:47;4.90;;;2.30;;
57071;SDS011;42956;51.366;11.298;2023-07-16T02:06:17;3.45;;;2.38;;
57071;SDS011;42956;51.366;11.298;2023-07-16T02:08:47;3.00;;;2.10;;
57071;SDS011;42956;51.366;11.298;2023-07-16T02:11:17;6.57;;;2.30;;
57071;SDS011;42956;51.366;11.298;2023-07-16T02:13:48;5.47;;;2.78;;
57071;SDS011;42956;51.366;11.298;2023-07-16T02:16:20;3.83;;;2.05;;
57071;SDS011;42956;51.366;11.298;2023-07-16T02:18:50;3.63;;;1.83;;
57071;SDS011;42956;51.366;11.298;2023-07-16T02:21:20;2.15;;;1.88;;
57071;SDS011;42956;51.366;11.298;2023-07-16T02:23:50;5.95;;;2.33;;
57071;SDS011;42956;51.366;11.298;2023-07-16T02:26:20;2.15;;;1.83;;
57071;SDS011;42956;51.366;11.298;2023-07-16T02:28:50;5.05;;;2.25;;
57071;SDS011;42956;51.366;11.298;2023-07-16T02:31:22;2.53;;;1.95;;
57071;SDS011;42956;51.366;11.298;2023-07-16T02:33:52;4.43;;;2.30;;
57071;SDS011;42956;51.366;11.298;2023-07-16T02:36:22;3.28;;;2.20;;
57071;SDS011;42956;51.366;11.298;2023-07-16T02:38:52;2.83;;;2.38;;
57071;SDS011;42956;51.366;11.298;2023-07-16T02:41:22;7.68;;;2.50;;
57071;SDS011;42956;51.366;11.298;2023-07-16T02:43:58;2.45;;;2.05;;
57071;SDS011;42956;51.366;11.298;2023-07-16T02:46:31;7.85;;;3.15;;
57071;SDS011;42956;51.366;11.298;2023-07-16T02:49:02;2.20;;;2.00;;
57071;SDS011;42956;51.366;11.298;2023-07-16T02:51:32;3.63;;;2.30;;
57071;SDS011;42956;51.366;11.298;2023-07-16T02:54:02;4.22;;;1.75;;
57071;SDS011;42956;51.366;11.298;2023-07-16T02:56:32;3.47;;;2.22;;
57071;SDS011;42956;51.366;11.298;2023-07-16T02:59:02;2.45;;;1.95;;
57071;SDS011;42956;51.366;11.298;2023-07-16T03:01:34;6.55;;;2.38;;
57071;SDS011;42956;51.366;11.298;2023-07-16T03:04:04;6.35;;;2.75;;
57071;SDS011;42956;51.366;11.298;2023-07-16T03:06:34;3.88;;;2.13;;
57071;SDS011;42956;51.366;11.298;2023-07-16T03:09:04;5.15;;;2.00;;
57071;SDS011;42956;51.366;11.298;2023-07-16T03:11:34;2.33;;;2.13;;
57071;SDS011;42956;51.366;11.298;2023-07-16T03:14:03;7.50;;;2.38;;
57071;SDS011;42956;51.366;11.298;2023-07-16T03:16:36;2.88;;;2.40;;
57071;SDS011;42956;51.366;11.298;2023-07-16T03:19:06;6.15;;;2.85;;
57071;SDS011;42956;51.366;11.298;2023-07-16T03:21:36;8.65;;;2.88;;
57071;SDS011;42956;51.366;11.298;2023-07-16T03:24:06;3.17;;;2.88;;
57071;SDS011;42956;51.366;11.298;2023-07-16T03:26:36;6.55;;;2.83;;
57071;SDS011;42956;51.366;11.298;2023-07-16T03:29:06;5.07;;;2.70;;
57071;SDS011;42956;51.366;11.298;2023-07-16T03:31:39;4.38;;;3.03;;
57071;SDS011;42956;51.366;11.298;2023-07-16T03:34:08;12.65;;;3.10;;
57071;SDS011;42956;51.366;11.298;2023-07-16T03:36:38;5.63;;;2.83;;
57071;SDS011;42956;51.366;11.298;2023-07-16T03:39:08;4.60;;;3.30;;
57071;SDS011;42956;51.366;11.298;2023-07-16T03:41:38;5.47;;;3.00;;
57071;SDS011;42956;51.366;11.298;2023-07-16T03:44:08;6.22;;;3.00;;
57071;SDS011;42956;51.366;11.298;2023-07-16T03:46:41;6.28;;;3.35;;
57071;SDS011;42956;51.366;11.298;2023-07-16T03:49:11;10.18;;;2.90;;
57071;SDS011;42956;51.366;11.298;2023-07-16T03:51:41;5.40;;;3.20;;
57071;SDS011;42956;51.366;11.298;2023-07-16T03:54:10;6.47;;;2.88;;
57071;SDS011;42956;51.366;11.298;2023-07-16T03:56:40;8.60;;;3.25;;
57071;SDS011;42956;51.366;11.298;2023-07-16T03:59:10;8.77;;;3.13;;
57071;SDS011;42956;51.366;11.298;2023-07-16T04:01:43;7.10;;;2.90;;
57071;SDS011;42956;51.366;11.298;2023-07-16T04:04:13;4.03;;;2.63;;
57071;SDS011;42956;51.366;11.298;2023-07-16T04:06:43;6.63;;;2.47;;
57071;SDS011;42956;51.366;11.298;2023-07-16T04:09:13;9.88;;;2.65;;
57071;SDS011;42956;51.366;11.298;2023-07-16T04:11:43;5.90;;;2.47;;
57071;SDS011;42956;51.366;11.298;2023-07-16T04:14:13;3.40;;;2.13;;
57071;SDS011;42956;51.366;11.298;2023-07-16T04:16:45;2.83;;;2.33;;
57071;SDS011;42956;51.366;11.298;2023-07-16T04:19:15;5.72;;;2.45;;
57071;SDS011;42956;51.366;11.298;2023-07-16T04:21:45;11.85;;;2.72;;
57071;SDS011;42956;51.366;11.298;2023-07-16T04:24:15;6.70;;;2.35;;
57071;SDS011;42956;51.366;11.298;2023-07-16T04:26:45;6.85;;;2.63;;
57071;SDS011;42956;51.366;11.298;2023-07-16T04:29:15;11.20;;;2.50;;
57071;SDS011;42956;51.366;11.298;2023-07-16T04:31:48;1.95;;;1.75;;
57071;SDS011;42956;51.366;11.298;2023-07-16T04:34:17;8.90;;;2.45;;
57071;SDS011;42956;51.366;11.298;2023-07-16T04:36:47;4.80;;;1.80;;
57071;SDS011;42956;51.366;11.298;2023-07-16T04:39:17;2.65;;;1.70;;
57071;SDS011;42956;51.366;11.298;2023-07-16T04:41:47;11.18;;;2.45;;
57071;SDS011;42956;51.366;11.298;2023-07-16T04:44:17;5.00;;;2.15;;
57071;SDS011;42956;51.366;11.298;2023-07-16T04:46:50;3.58;;;1.65;;
57071;SDS011;42956;51.366;11.298;2023-07-16T04:49:20;5.60;;;1.95;;
57071;SDS011;42956;51.366;11.298;2023-07-16T04:51:50;1.60;;;1.50;;
57071;SDS011;42956;51.366;11.298;2023-07-16T04:54:20;4.85;;;1.77;;
57071;SDS011;42956;51.366;11.298;2023-07-16T04:56:50;5.45;;;2.25;;
57071;SDS011;42956;51.366;11.298;2023-07-16T04:59:20;8.30;;;2.13;;
57071;SDS011;42956;51.366;11.298;2023-07-16T05:01:52;4.75;;;2.03;;
57071;SDS011;42956;51.366;11.298;2023-07-16T05:04:22;9.88;;;2.00;;
57071;SDS011;42956;51.366;11.298;2023-07-16T05:06:52;4.78;;;2.17;;
57071;SDS011;42956;51.366;11.298;2023-07-16T05:09:22;3.75;;;1.88;;
57071;SDS011;42956;51.366;11.298;2023-07-16T05:11:52;6.95;;;2.65;;
57071;SDS011;42956;51.366;11.298;2023-07-16T05:14:22;3.88;;;1.92;;
57071;SDS011;42956;51.366;11.298;2023-07-16T05:16:54;8.63;;;2.40;;
57071;SDS011;42956;51.366;11.298;2023-07-16T05:19:24;12.60;;;2.03;;
57071;SDS011;42956;51.366;11.298;2023-07-16T05:21:54;4.28;;;1.60;;
57071;SDS011;42956;51.366;11.298;2023-07-16T05:24:24;5.25;;;1.85;;
57071;SDS011;42956;51.366;11.298;2023-07-16T05:26:54;5.43;;;2.25;;
57071;SDS011;42956;51.366;11.298;2023-07-16T05:29:24;2.10;;;1.52;;
57071;SDS011;42956;51.366;11.298;2023-07-16T05:31:56;5.38;;;1.88;;
57071;SDS011;42956;51.366;11.298;2023-07-16T05:34:27;4.07;;;2.15;;
57071;SDS011;42956;51.366;11.298;2023-07-16T05:36:57;2.80;;;1.95;;
57071;SDS011;42956;51.366;11.298;2023-07-16T05:39:26;5.80;;;2.47;;
57071;SDS011;42956;51.366;11.298;2023-07-16T05:41:56;3.78;;;1.70;;
57071;SDS011;42956;51.366;11.298;2023-07-16T05:44:29;4.68;;;2.03;;
57071;SDS011;42956;51.366;11.298;2023-07-16T05:47:01;5.90;;;2.00;;
57071;SDS011;42956;51.366;11.298;2023-07-16T05:49:31;7.22;;;1.83;;
57071;SDS011;42956;51.366;11.298;2023-07-16T05:52:01;8.75;;;1.80;;
57071;SDS011;42956;51.366;11.298;2023-07-16T05:54:31;7.35;;;1.80;;
57071;SDS011;42956;51.366;11.298;2023-07-16T05:57:01;9.45;;;1.63;;
57071;SDS011;42956;51.366;11.298;2023-07-16T05:59:31;2.80;;;1.67;;
57071;SDS011;42956;51.366;11.298;2023-07-16T06:02:06;2.67;;;1.65;;
57071;SDS011;42956;51.366;11.298;2023-07-16T06:04:37;5.82;;;1.67;;
57071;SDS011;42956;51.366;11.298;2023-07-16T06:07:09;3.65;;;1.35;;
57071;SDS011;42956;51.366;11.298;2023-07-16T06:09:39;6.73;;;1.80;;
57071;SDS011;42956;51.366;11.298;2023-07-16T06:12:09;8.27;;;1.90;;
57071;SDS011;42956;51.366;11.298;2023-07-16T06:14:39;4.68;;;1.42;;
57071;SDS011;42956;51.366;11.298;2023-07-16T06:17:11;5.25;;;1.77;;
57071;SDS011;42956;51.366;11.298;2023-07-16T06:19:42;2.92;;;1.25;;
57071;SDS011;42956;51.366;11.298;2023-07-16T06:22:12;9.02;;;1.98;;
57071;SDS011;42956;51.366;11.298;2023-07-16T06:24:42;6.40;;;1.60;;
57071;SDS011;42956;51.366;11.298;2023-07-16T06:27:11;4.07;;;2.15;;
57071;SDS011;42956;51.366;11.298;2023-07-16T06:29:41;7.43;;;1.60;;
57071;SDS011;42956;51.366;11.298;2023-07-16T06:32:14;6.13;;;1.83;;
57071;SDS011;42956;51.366;11.298;2023-07-16T06:34:44;5.13;;;1.60;;
57071;SDS011;42956;51.366;11.298;2023-07-16T06:37:14;4.63;;;1.40;;
57071;SDS011;42956;51.366;11.298;2023-07-16T06:39:44;6.78;;;1.83;;
57071;SDS011;42956;51.366;11.298;2023-07-16T06:42:14;4.40;;;1.90;;
57071;SDS011;42956;51.366;11.298;2023-07-16T06:44:44;3.47;;;1.60;;
57071;SDS011;42956;51.366;11.298;2023-07-16T06:47:16;3.85;;;1.60;;
57071;SDS011;42956;51.366;11.298;2023-07-16T06:49:46;6.45;;;2.15;;
57071;SDS011;42956;51.366;11.298;2023-07-16T06:52:20;3.53;;;1.40;;
57071;SDS011;42956;51.366;11.298;2023-07-16T06:54:51;5.28;;;1.35;;
57071;SDS011;42956;51.366;11.298;2023-07-16T06:57:21;3.60;;;1.60;;
57071;SDS011;42956;51.366;11.298;2023-07-16T06:59:51;10.90;;;2.67;;
57071;SDS011;42956;51.366;11.298;2023-07-16T07:02:24;3.25;;;1.55;;
57071;SDS011;42956;51.366;11.298;2023-07-16T07:04:54;5.20;;;1.95;;
57071;SDS011;42956;51.366;11.298;2023-07-16T07:07:25;2.88;;;1.80;;
57071;SDS011;42956;51.366;11.298;2023-07-16T07:09:55;4.97;;;2.30;;
57071;SDS011;42956;51.366;11.298;2023-07-16T07:12:25;6.18;;;2.00;;
57071;SDS011;42956;51.366;11.298;2023-07-16T07:14:55;4.68;;;1.67;;
57071;SDS011;42956;51.366;11.298;2023-07-16T07:17:27;3.95;;;1.65;;
57071;SDS011;42956;51.366;11.298;2023-07-16T07:22:27;5.10;;;2.10;;
57071;SDS011;42956;51.366;11.298;2023-07-16T07:24:58;5.35;;;1.67;;
57071;SDS011;42956;51.366;11.298;2023-07-16T07:27:28;3.42;;;1.58;;
57071;SDS011;42956;51.366;11.298;2023-07-16T07:29:58;5.82;;;2.30;;
57071;SDS011;42956;51.366;11.298;2023-07-16T07:32:30;5.22;;;1.48;;
57071;SDS011;42956;51.366;11.298;2023-07-16T07:35:00;4.65;;;1.88;;
57071;SDS011;42956;51.366;11.298;2023-07-16T07:37:30;4.45;;;2.08;;
57071;SDS011;42956;51.366;11.298;2023-07-16T07:40:00;3.60;;;1.55;;
57071;SDS011;42956;51.366;11.298;2023-07-16T07:42:30;3.83;;;1.67;;
57071;SDS011;42956;51.366;11.298;2023-07-16T07:45:00;3.58;;;1.83;;
57071;SDS011;42956;51.366;11.298;2023-07-16T07:47:33;3.45;;;1.58;;
57071;SDS011;42956;51.366;11.298;2023-07-16T07:50:03;4.93;;;1.80;;
57071;SDS011;42956;51.366;11.298;2023-07-16T07:52:33;4.30;;;1.42;;
57071;SDS011;42956;51.366;11.298;2023-07-16T07:55:04;5.57;;;1.77;;
57071;SDS011;42956;51.366;11.298;2023-07-16T07:57:34;12.55;;;2.33;;
57071;SDS011;42956;51.366;11.298;2023-07-16T08:00:04;5.90;;;1.70;;
57071;SDS011;42956;51.366;11.298;2023-07-16T08:02:41;7.60;;;1.50;;
57071;SDS011;42956;51.366;11.298;2023-07-16T08:05:11;3.53;;;1.73;;
57071;SDS011;42956;51.366;11.298;2023-07-16T08:07:41;9.30;;;1.50;;
57071;SDS011;42956;51.366;11.298;2023-07-16T08:10:14;3.72;;;1.50;;
57071;SDS011;42956;51.366;11.298;2023-07-16T08:12:44;10.32;;;2.17;;
57071;SDS011;42956;51.366;11.298;2023-07-16T08:15:14;5.70;;;1.45;;
57071;SDS011;42956;51.366;11.298;2023-07-16T08:17:47;5.10;;;1.80;;
57071;SDS011;42956;51.366;11.298;2023-07-16T08:20:18;5.03;;;1.60;;
57071;SDS011;42956;51.366;11.298;2023-07-16T08:22:48;4.70;;;1.90;;
57071;SDS011;42956;51.366;11.298;2023-07-16T08:25:18;11.50;;;1.85;;
57071;SDS011;42956;51.366;11.298;2023-07-16T08:27:49;5.32;;;1.95;;
57071;SDS011;42956;51.366;11.298;2023-07-16T08:30:19;5.47;;;1.80;;
57071;SDS011;42956;51.366;11.298;2023-07-16T08:32:51;6.13;;;1.88;;
57071;SDS011;42956;51.366;11.298;2023-07-16T08:35:21;4.72;;;1.58;;
57071;SDS011;42956;51.366;11.298;2023-07-16T08:37:51;6.30;;;1.33;;
57071;SDS011;42956;51.366;11.298;2023-07-16T08:40:21;5.47;;;1.50;;
57071;SDS011;42956;51.366;11.298;2023-07-16T08:42:51;2.97;;;1.50;;
57071;SDS011;42956;51.366;11.298;2023-07-16T08:45:21;2.65;;;1.63;;
57071;SDS011;42956;51.366;11.298;2023-07-16T08:47:55;8.68;;;2.30;;
57071;SDS011;42956;51.366;11.298;2023-07-16T08:50:25;4.35;;;1.60;;
57071;SDS011;42956;51.366;11.298;2023-07-16T08:52:58;13.57;;;2.33;;
57071;SDS011;42956;51.366;11.298;2023-07-16T08:55:29;5.25;;;1.33;;
57071;SDS011;42956;51.366;11.298;2023-07-16T08:57:59;4.22;;;1.60;;
57071;SDS011;42956;51.366;11.298;2023-07-16T09:00:29;3.30;;;1.52;;
57071;SDS011;42956;51.366;11.298;2023-07-16T09:03:02;4.32;;;1.85;;
57071;SDS011;42956;51.366;11.298;2023-07-16T09:05:33;6.63;;;2.15;;
57071;SDS011;42956;51.366;11.298;2023-07-16T09:08:06;2.63;;;1.25;;
57071;SDS011;42956;51.366;11.298;2023-07-16T09:10:36;12.85;;;2.13;;
57071;SDS011;42956;51.366;11.298;2023-07-16T09:13:06;6.57;;;1.70;;
57071;SDS011;42956;51.366;11.298;2023-07-16T09:15:36;7.07;;;1.73;;
57071;SDS011;42956;51.366;11.298;2023-07-16T09:18:10;3.67;;;1.50;;
57071;SDS011;42956;51.366;11.298;2023-07-16T09:20:43;2.58;;;1.70;;
57071;SDS011;42956;51.366;11.298;2023-07-16T09:23:17;2.90;;;1.52;;
57071;SDS011;42956;51.366;11.298;2023-07-16T09:25:49;6.35;;;1.77;;
57071;SDS011;42956;51.366;11.298;2023-07-16T09:28:19;3.25;;;1.95;;
57071;SDS011;42956;51.366;11.298;2023-07-16T09:30:49;5.10;;;1.52;;
57071;SDS011;42956;51.366;11.298;2023-07-16T09:33:22;4.60;;;1.65;;
57071;SDS011;42956;51.366;11.298;2023-07-16T09:35:53;2.63;;;1.40;;
57071;SDS011;42956;51.366;11.298;2023-07-16T09:38:23;3.42;;;1.52;;
57071;SDS011;42956;51.366;11.298;2023-07-16T09:40:55;3.78;;;1.38;;
57071;SDS011;42956;51.366;11.298;2023-07-16T09:43:25;2.45;;;1.83;;
57071;SDS011;42956;51.366;11.298;2023-07-16T09:45:55;5.07;;;1.65;;
57071;SDS011;42956;51.366;11.298;2023-07-16T09:48:28;7.05;;;2.33;;
57071;SDS011;42956;51.366;11.298;2023-07-16T09:50:57;4.30;;;1.80;;
57071;SDS011;42956;51.366;11.298;2023-07-16T09:53:28;7.18;;;2.08;;
57071;SDS011;42956;51.366;11.298;2023-07-16T09:56:00;9.30;;;1.90;;
57071;SDS011;42956;51.366;11.298;2023-07-16T09:58:32;2.63;;;1.70;;
57071;SDS011;42956;51.366;11.298;2023-07-16T10:01:02;3.60;;;1.50;;
57071;SDS011;42956;51.366;11.298;2023-07-16T10:03:36;6.90;;;1.85;;
57071;SDS011;42956;51.366;11.298;2023-07-16T10:06:06;3.10;;;1.52;;
57071;SDS011;42956;51.366;11.298;2023-07-16T10:08:36;3.17;;;1.70;;
57071;SDS011;42956;51.366;11.298;2023-07-16T10:11:15;3.88;;;1.85;;
57071;SDS011;42956;51.366;11.298;2023-07-16T10:13:48;4.55;;;1.70;;
57071;SDS011;42956;51.366;11.298;2023-07-16T10:16:21;3.97;;;1.88;;
57071;SDS011;42956;51.366;11.298;2023-07-16T10:18:58;4.60;;;1.42;;
57071;SDS011;42956;51.366;11.298;2023-07-16T10:21:28;3.15;;;1.63;;
57071;SDS011;42956;51.366;11.298;2023-07-16T10:24:15;5.35;;;1.77;;
57071;SDS011;42956;51.366;11.298;2023-07-16T10:26:46;9.90;;;1.70;;
57071;SDS011;42956;51.366;11.298;2023-07-16T10:29:15;4.35;;;1.60;;
57071;SDS011;42956;51.366;11.298;2023-07-16T10:31:45;12.23;;;2.35;;
57071;SDS011;42956;51.366;11.298;2023-07-16T10:34:21;5.28;;;1.70;;
57071;SDS011;42956;51.366;11.298;2023-07-16T10:36:52;6.82;;;2.17;;
57071;SDS011;42956;51.366;11.298;2023-07-16T10:39:22;11.43;;;1.80;;
57071;SDS011;42956;51.366;11.298;2023-07-16T10:41:52;6.32;;;1.95;;
57071;SDS011;42956;51.366;11.298;2023-07-16T10:44:23;4.95;;;1.88;;
57071;SDS011;42956;51.366;11.298;2023-07-16T10:46:53;4.28;;;1.70;;
57071;SDS011;42956;51.366;11.298;2023-07-16T10:49:29;7.88;;;2.10;;
57071;SDS011;42956;51.366;11.298;2023-07-16T10:52:00;3.55;;;1.67;;
57071;SDS011;42956;51.366;11.298;2023-07-16T10:54:30;4.30;;;1.95;;
57071;SDS011;42956;51.366;11.298;2023-07-16T10:57:01;6.28;;;1.92;;
57071;SDS011;42956;51.366;11.298;2023-07-16T10:59:31;3.83;;;1.60;;
57071;SDS011;42956;51.366;11.298;2023-07-16T11:02:01;4.70;;;1.73;;
57071;SDS011;42956;51.366;11.298;2023-07-16T11:04:35;10.73;;;1.80;;
57071;SDS011;42956;51.366;11.298;2023-07-16T11:07:06;4.05;;;1.60;;
57071;SDS011;42956;51.366;11.298;2023-07-16T11:09:41;4.40;;;1.52;;
57071;SDS011;42956;51.366;11.298;2023-07-16T11:12:13;3.90;;;1.92;;
57071;SDS011;42956;51.366;11.298;2023-07-16T11:14:43;7.55;;;2.10;;
57071;SDS011;42956;51.366;11.298;2023-07-16T11:17:14;7.00;;;2.10;;
57071;SDS011;42956;51.366;11.298;2023-07-16T11:19:47;8.52;;;1.90;;
57071;SDS011;42956;51.366;11.298;2023-07-16T11:22:17;6.45;;;1.92;;
57071;SDS011;42956;51.366;11.298;2023-07-16T11:24:49;4.60;;;1.83;;
57071;SDS011;42956;51.366;11.298;2023-07-16T11:27:20;3.33;;;1.92;;
57071;SDS011;42956;51.366;11.298;2023-07-16T11:29:50;5.72;;;2.20;;
57071;SDS011;42956;51.366;11.298;2023-07-16T11:32:30;8.52;;;1.85;;
57071;SDS011;42956;51.366;11.298;2023-07-16T11:35:04;4.05;;;1.67;;
57071;SDS011;42956;51.366;11.298;2023-07-16T11:37:35;4.97;;;2.17;;
57071;SDS011;42956;51.366;11.298;2023-07-16T11:40:07;6.55;;;2.03;;
57071;SDS011;42956;51.366;11.298;2023-07-16T11:42:38;3.95;;;1.77;;
57071;SDS011;42956;51.366;11.298;2023-07-16T11:45:14;6.53;;;1.83;;
57071;SDS011;42956;51.366;11.298;2023-07-16T11:47:44;4.28;;;1.67;;
57071;SDS011;42956;51.366;11.298;2023-07-16T11:50:18;5.30;;;2.00;;
57071;SDS011;42956;51.366;11.298;2023-07-16T11:52:53;7.55;;;2.97;;
57071;SDS011;42956;51.366;11.298;2023-07-16T11:55:23;10.18;;;1.70;;
57071;SDS011;42956;51.366;11.298;2023-07-16T11:57:53;6.97;;;2.13;;
57071;SDS011;42956;51.366;11.298;2023-07-16T12:00:23;4.53;;;2.28;;
57071;SDS011;42956;51.366;11.298;2023-07-16T12:02:53;4.85;;;2.03;;
57071;SDS011;42956;51.366;11.298;2023-07-16T12:05:26;6.32;;;1.75;;
57071;SDS011;42956;51.366;11.298;2023-07-16T12:08:16;4.72;;;2.13;;
57071;SDS011;42956;51.366;11.298;2023-07-16T12:10:46;3.63;;;2.30;;
57071;SDS011;42956;51.366;11.298;2023-07-16T12:13:16;4.05;;;1.75;;
57071;SDS011;42956;51.366;11.298;2023-07-16T12:15:46;11.13;;;2.40;;
57071;SDS011;42956;51.366;11.298;2023-07-16T12:18:16;6.10;;;2.20;;
57071;SDS011;42956;51.366;11.298;2023-07-16T12:20:48;4.22;;;2.08;;
57071;SDS011;42956;51.366;11.298;2023-07-16T12:25:48;2.25;;;1.75;;
57071;SDS011;42956;51.366;11.298;2023-07-16T12:28:19;3.45;;;2.25;;
57071;SDS011;42956;51.366;11.298;2023-07-16T12:30:48;8.15;;;1.95;;
57071;SDS011;42956;51.366;11.298;2023-07-16T12:33:19;3.83;;;2.20;;
57071;SDS011;42956;51.366;11.298;2023-07-16T12:35:52;2.40;;;1.85;;
57071;SDS011;42956;51.366;11.298;2023-07-16T12:38:22;5.05;;;1.90;;
57071;SDS011;42956;51.366;11.298;2023-07-16T12:40:52;5.88;;;2.20;;
57071;SDS011;42956;51.366;11.298;2023-07-16T12:43:22;4.25;;;2.15;;
57071;SDS011;42956;51.366;11.298;2023-07-16T12:45:52;7.00;;;2.53;;
57071;SDS011;42956;51.366;11.298;2023-07-16T12:48:22;4.13;;;2.17;;
57071;SDS011;42956;51.366;11.298;2023-07-16T12:50:55;3.97;;;2.20;;
57071;SDS011;42956;51.366;11.298;2023-07-16T12:53:25;5.82;;;2.20;;
57071;SDS011;42956;51.366;11.298;2023-07-16T12:55:55;5.97;;;3.22;;
57071;SDS011;42956;51.366;11.298;2023-07-16T12:58:25;6.50;;;2.47;;
57071;SDS011;42956;51.366;11.298;2023-07-16T13:00:55;4.97;;;2.50;;
57071;SDS011;42956;51.366;11.298;2023-07-16T13:03:25;3.58;;;2.55;;
57071;SDS011;42956;51.366;11.298;2023-07-16T13:05:58;5.28;;;2.05;;
57071;SDS011;42956;51.366;11.298;2023-07-16T13:08:30;6.35;;;2.03;;
57071;SDS011;42956;51.366;11.298;2023-07-16T13:11:01;11.85;;;2.55;;
57071;SDS011;42956;51.366;11.298;2023-07-16T13:13:32;4.70;;;2.35;;
57071;SDS011;42956;51.366;11.298;2023-07-16T13:16:02;5.00;;;2.38;;
57071;SDS011;42956;51.366;11.298;2023-07-16T13:18:32;6.13;;;2.53;;
57071;SDS011;42956;51.366;11.298;2023-07-16T13:21:05;13.85;;;2.25;;
57071;SDS011;42956;51.366;11.298;2023-07-16T13:23:37;5.20;;;2.47;;
57071;SDS011;42956;51.366;11.298;2023-07-16T13:26:08;5.25;;;2.53;;
57071;SDS011;42956;51.366;11.298;2023-07-16T13:28:41;10.75;;;3.75;;
57071;SDS011;42956;51.366;11.298;2023-07-16T13:31:11;4.18;;;2.67;;
57071;SDS011;42956;51.366;11.298;2023-07-16T13:33:41;4.65;;;2.88;;
57071;SDS011;42956;51.366;11.298;2023-07-16T13:36:14;5.18;;;2.60;;
57071;SDS011;42956;51.366;11.298;2023-07-16T13:38:44;4.15;;;2.70;;
57071;SDS011;42956;51.366;11.298;2023-07-16T13:41:14;6.32;;;2.70;;
57071;SDS011;42956;51.366;11.298;2023-07-16T13:43:44;3.92;;;2.67;;
57071;SDS011;42956;51.366;11.298;2023-07-16T13:46:14;10.05;;;3.13;;
57071;SDS011;42956;51.366;11.298;2023-07-16T13:48:46;5.32;;;2.78;;
57071;SDS011;42956;51.366;11.298;2023-07-16T13:51:27;8.07;;;2.38;;
57071;SDS011;42956;51.366;11.298;2023-07-16T13:53:57;5.55;;;2.88;;
57071;SDS011;42956;51.366;11.298;2023-07-16T13:56:27;12.13;;;3.60;;
57071;SDS011;42956;51.366;11.298;2023-07-16T13:58:57;4.20;;;2.63;;
57071;SDS011;42956;51.366;11.298;2023-07-16T14:01:27;5.70;;;2.78;;
57071;SDS011;42956;51.366;11.298;2023-07-16T14:03:57;6.43;;;2.80;;
57071;SDS011;42956;51.366;11.298;2023-07-16T14:06:30;3.97;;;2.70;;
57071;SDS011;42956;51.366;11.298;2023-07-16T14:09:01;7.22;;;2.97;;
57071;SDS011;42956;51.366;11.298;2023-07-16T14:11:31;5.03;;;2.70;;
57071;SDS011;42956;51.366;11.298;2023-07-16T14:14:01;2.58;;;2.28;;
57071;SDS011;42956;51.366;11.298;2023-07-16T14:19:25;10.15;;;3.15;;
57071;SDS011;42956;51.366;11.298;2023-07-16T14:21:59;4.75;;;2.90;;
57071;SDS011;42956;51.366;11.298;2023-07-16T14:24:29;8.25;;;3.17;;
57071;SDS011;42956;51.366;11.298;2023-07-16T14:26:59;5.28;;;2.53;;
57071;SDS011;42956;51.366;11.298;2023-07-16T14:29:29;9.25;;;2.95;;
57071;SDS011;42956;51.366;11.298;2023-07-16T14:32:00;8.13;;;2.80;;
57071;SDS011;42956;51.366;11.298;2023-07-16T14:34:30;9.40;;;2.80;;
57071;SDS011;42956;51.366;11.298;2023-07-16T14:37:03;7.07;;;2.60;;
57071;SDS011;42956;51.366;11.298;2023-07-16T14:39:33;3.67;;;2.65;;
57071;SDS011;42956;51.366;11.298;2023-07-16T14:42:03;4.88;;;2.80;;
57071;SDS011;42956;51.366;11.298;2023-07-16T14:44:33;5.25;;;3.35;;
57071;SDS011;42956;51.366;11.298;2023-07-16T14:47:03;5.20;;;2.60;;
57071;SDS011;42956;51.366;11.298;2023-07-16T14:49:33;5.22;;;2.45;;
57071;SDS011;42956;51.366;11.298;2023-07-16T14:52:06;11.32;;;3.22;;
57071;SDS011;42956;51.366;11.298;2023-07-16T14:54:36;9.23;;;2.55;;
57071;SDS011;42956;51.366;11.298;2023-07-16T14:57:07;5.60;;;2.45;;
57071;SDS011;42956;51.366;11.298;2023-07-16T14:59:36;9.05;;;2.78;;
57071;SDS011;42956;51.366;11.298;2023-07-16T15:02:07;8.00;;;3.17;;
57071;SDS011;42956;51.366;11.298;2023-07-16T15:04:36;5.80;;;2.88;;
57071;SDS011;42956;51.366;11.298;2023-07-16T15:07:09;9.52;;;2.80;;